Time;durP1;ratioP1;P1;durP2;ratioP2;P2;SDS_P1;SDS_P2;PMS_P1;PMS_P2;Temp;Humidity;BMP_temperature;BMP_pressure;BME280_temperature;BME280_humidity;BME280_pressure;Samples;Min_cycle;Max_cycle;Signal;HPM_P1;HPM_P2
2022/05/06 00:01:09;;;;;;;13.23;8.88;;;8.90;99.90;;;;;;4428093;28;657403;-67
2022/05/06 00:03:56;;;;;;;12.93;8.07;;;8.90;99.90;;;;;;4416821;28;655974;-67
2022/05/06 00:06:43;;;;;;;26.93;10.20;;;8.90;99.90;;;;;;4430760;28;657327;-67
2022/05/06 00:09:30;;;;;;;22.40;8.77;;;8.80;99.90;;;;;;4407297;28;658181;-67
2022/05/06 00:12:19;;;;;;;226.47;14.40;;;8.80;99.90;;;;;;4427727;28;657995;-67
2022/05/06 00:15:09;;;;;;;15.37;7.87;;;8.80;99.90;;;;;;4403856;28;658913;-67
2022/05/06 00:17:56;;;;;;;10.67;6.97;;;8.80;99.90;;;;;;4408832;28;657241;-67
2022/05/06 00:20:43;;;;;;;11.07;7.23;;;8.90;99.90;;;;;;4432187;28;658760;-67
2022/05/06 00:23:30;;;;;;;16.57;8.70;;;9.00;99.90;;;;;;4403215;28;656320;-67
2022/05/06 00:26:17;;;;;;;14.27;7.80;;;9.10;99.90;;;;;;4432592;28;657482;-67
2022/05/06 00:29:04;;;;;;;13.17;7.90;;;9.20;99.90;;;;;;4428897;28;656377;-67
2022/05/06 00:31:53;;;;;;;15.73;8.77;;;9.20;99.90;;;;;;4411115;28;657350;-67
2022/05/06 00:34:40;;;;;;;16.27;11.03;;;9.20;99.90;;;;;;4410789;28;656850;-67
2022/05/06 00:37:27;;;;;;;21.07;11.57;;;9.20;99.90;;;;;;4429681;28;658334;-67
2022/05/06 00:40:15;;;;;;;21.57;13.03;;;9.30;99.90;;;;;;4414628;28;658138;-67
2022/05/06 00:43:03;;;;;;;21.77;13.17;;;9.40;99.90;;;;;;4432738;28;659000;-67
2022/05/06 00:45:52;;;;;;;18.70;12.07;;;9.50;99.90;;;;;;4423882;28;657399;-67
2022/05/06 00:48:41;;;;;;;20.03;11.27;;;9.60;99.90;;;;;;4429630;28;658079;-67
2022/05/06 00:51:29;;;;;;;21.33;11.43;;;9.50;99.90;;;;;;4397780;28;657640;-67
2022/05/06 00:54:16;;;;;;;18.93;11.07;;;9.50;99.90;;;;;;4409489;28;657829;-68
2022/05/06 00:57:04;;;;;;;19.13;10.07;;;9.50;99.90;;;;;;4433582;28;657998;-68
2022/05/06 01:02:55;;;;;;;17.10;10.67;;;9.50;99.90;;;;;;4388816;28;657771;-67
2022/05/06 01:05:44;;;;;;;17.13;10.67;;;9.50;99.90;;;;;;4416720;28;658251;-67
2022/05/06 01:08:31;;;;;;;20.25;10.15;;;9.50;99.90;;;;;;4400989;28;658183;-67
2022/05/06 01:11:18;;;;;;;18.03;11.03;;;9.60;99.90;;;;;;4422466;28;658882;-67
2022/05/06 01:14:06;;;;;;;18.57;11.50;;;9.60;99.90;;;;;;4402097;28;657593;-67
2022/05/06 01:16:53;;;;;;;19.03;10.40;;;9.70;99.90;;;;;;4424913;28;657955;-67
2022/05/06 01:19:40;;;;;;;16.87;11.27;;;9.60;99.90;;;;;;4404322;28;658240;-67
2022/05/06 01:22:30;;;;;;;16.73;10.90;;;9.60;99.90;;;;;;4424981;28;659168;-67
2022/05/06 01:25:17;;;;;;;21.57;12.13;;;9.60;99.90;;;;;;4399890;28;658861;-67
2022/05/06 01:28:05;;;;;;;19.37;12.00;;;9.60;99.90;;;;;;4422870;28;657396;-67
2022/05/06 01:30:58;;;;;;;19.93;11.67;;;9.70;99.90;;;;;;4400572;28;659087;-67
2022/05/06 01:33:46;;;;;;;21.03;12.70;;;9.60;99.90;;;;;;4375830;28;657737;-67
2022/05/06 01:36:33;;;;;;;23.10;13.60;;;9.50;99.90;;;;;;4424686;28;658651;-68
2022/05/06 01:39:24;;;;;;;24.57;12.17;;;9.50;99.90;;;;;;4401910;28;659222;-67
2022/05/06 01:42:12;;;;;;;17.40;11.77;;;9.50;99.90;;;;;;4390338;28;658071;-68
2022/05/06 01:44:59;;;;;;;16.67;11.37;;;9.40;99.90;;;;;;4424859;28;656635;-68
2022/05/06 01:47:46;;;;;;;27.67;13.37;;;9.40;99.90;;;;;;4401220;28;657884;-67
2022/05/06 01:50:33;;;;;;;27.52;14.20;;;9.40;99.90;;;;;;4419808;28;658398;-67
2022/05/06 01:53:21;;;;;;;24.93;13.33;;;9.40;99.90;;;;;;4394314;28;658965;-68
2022/05/06 01:56:09;;;;;;;46.87;12.77;;;9.30;99.90;;;;;;4423103;28;657800;-67
2022/05/06 01:58:56;;;;;;;24.70;13.30;;;9.30;99.90;;;;;;4403160;28;657964;-67
2022/05/06 02:01:44;;;;;;;21.17;12.73;;;9.30;99.90;;;;;;4414423;28;657338;-68
2022/05/06 02:07:35;;;;;;;23.47;13.27;;;9.30;99.90;;;;;;4394166;28;657299;-68
2022/05/06 02:10:24;;;;;;;27.53;14.47;;;9.30;99.90;;;;;;4421301;28;657298;-67
2022/05/06 02:13:12;;;;;;;25.10;13.83;;;9.30;99.90;;;;;;4395469;28;657887;-68
2022/05/06 02:15:59;;;;;;;80.93;12.60;;;9.30;99.90;;;;;;4419312;28;657650;-68
2022/05/06 02:18:47;;;;;;;20.13;11.17;;;9.20;99.90;;;;;;4398060;28;658329;-68
2022/05/06 02:21:34;;;;;;;23.17;12.77;;;9.00;99.90;;;;;;4421760;28;658812;-68
2022/05/06 02:24:21;;;;;;;23.07;12.80;;;9.10;99.90;;;;;;4397727;28;657580;-68
2022/05/06 02:27:12;;;;;;;27.33;15.63;;;9.20;99.90;;;;;;4418977;28;658159;-68
2022/05/06 02:33:15;;;;;;;31.67;16.50;;;9.30;99.90;;;;;;4391770;28;658676;-67
2022/05/06 02:36:02;;;;;;;32.27;17.43;;;9.30;99.90;;;;;;4372123;28;657938;-68
2022/05/06 02:38:49;;;;;;;37.30;18.10;;;9.40;99.90;;;;;;4417955;28;657286;-68
2022/05/06 02:41:37;;;;;;;36.87;15.83;;;9.40;99.90;;;;;;4396511;28;657524;-68
2022/05/06 02:44:24;;;;;;;34.07;12.10;;;9.20;99.90;;;;;;4427213;28;657579;-68
2022/05/06 02:47:12;;;;;;;20.93;13.00;;;9.10;99.90;;;;;;4414059;28;657885;-68
2022/05/06 02:50:01;;;;;;;28.70;16.77;;;9.10;99.90;;;;;;4414748;28;657272;-68
2022/05/06 02:52:48;;;;;;;32.63;18.30;;;9.30;99.90;;;;;;4432372;28;658795;-68
2022/05/06 02:55:35;;;;;;;29.97;16.77;;;9.30;99.90;;;;;;4413021;28;657433;-68
2022/05/06 02:58:22;;;;;;;24.70;14.10;;;9.30;99.90;;;;;;4438133;28;658603;-67
2022/05/06 03:01:10;;;;;;;26.17;15.30;;;9.10;99.90;;;;;;4431722;28;657458;-67
2022/05/06 03:03:59;;;;;;;33.30;17.63;;;9.30;99.90;;;;;;4438088;28;657052;-67
2022/05/06 03:06:46;;;;;;;32.70;17.35;;;9.40;99.90;;;;;;4412142;28;658452;-67
2022/05/06 03:09:33;;;;;;;34.80;17.87;;;9.40;99.90;;;;;;4434040;28;658689;-67
2022/05/06 03:12:22;;;;;;;38.27;20.43;;;9.30;99.90;;;;;;4415538;28;657666;-67
2022/05/06 03:15:10;;;;;;;41.70;23.17;;;9.40;99.90;;;;;;4441271;28;657607;-67
2022/05/06 03:17:57;;;;;;;97.47;24.90;;;9.50;99.90;;;;;;4413982;28;658074;-67
2022/05/06 03:20:46;;;;;;;43.40;23.70;;;9.50;99.90;;;;;;4433233;28;657701;-67
2022/05/06 03:23:33;;;;;;;57.23;27.33;;;9.50;99.90;;;;;;4414230;28;658516;-67
2022/05/06 03:26:20;;;;;;;150.00;30.33;;;9.60;99.90;;;;;;4417571;28;657915;-67
2022/05/06 03:29:08;;;;;;;160.77;28.07;;;9.70;99.90;;;;;;4426156;28;659845;-67
2022/05/06 03:31:56;;;;;;;399.90;30.27;;;9.70;99.90;;;;;;4426709;28;658614;-68
2022/05/06 03:34:43;;;;;;;318.83;33.13;;;9.80;99.90;;;;;;4433716;28;658466;-67
2022/05/06 03:37:33;;;;;;;155.40;30.43;;;9.80;99.90;;;;;;4415469;28;658625;-68
2022/05/06 03:40:20;;;;;;;499.57;36.60;;;9.80;99.90;;;;;;4412782;28;658712;-67
2022/05/06 03:43:08;;;;;;;546.23;39.53;;;9.90;99.90;;;;;;4430811;28;659587;-67
2022/05/06 03:45:55;;;;;;;173.10;30.43;;;9.80;99.90;;;;;;4425844;28;659601;-67
2022/05/06 03:48:42;;;;;;;102.30;29.97;;;9.90;99.90;;;;;;4432600;28;660152;-67
2022/05/06 03:51:29;;;;;;;78.77;28.80;;;10.00;99.90;;;;;;4431971;28;658690;-67
2022/05/06 03:54:17;;;;;;;86.87;30.23;;;10.10;99.90;;;;;;4414386;28;658878;-67
2022/05/06 03:57:05;;;;;;;337.50;29.97;;;10.10;99.90;;;;;;4431429;28;659276;-67
2022/05/06 03:59:52;;;;;;;64.17;25.43;;;10.10;99.90;;;;;;4414657;28;660257;-67
2022/05/06 04:02:39;;;;;;;57.30;25.17;;;10.10;99.90;;;;;;4435775;28;659279;-67
2022/05/06 04:05:27;;;;;;;56.07;24.70;;;10.10;99.90;;;;;;4411202;28;659944;-67
2022/05/06 04:08:14;;;;;;;55.97;25.93;;;10.10;99.90;;;;;;4434900;28;658992;-67
2022/05/06 04:11:03;;;;;;;666.37;34.73;;;10.10;99.90;;;;;;4417708;28;658811;-68
2022/05/06 04:13:50;;;;;;;45.17;21.70;;;10.00;99.90;;;;;;4414626;28;659957;-67
2022/05/06 04:16:37;;;;;;;46.87;23.83;;;10.00;99.90;;;;;;4437376;28;658985;-67
2022/05/06 04:19:24;;;;;;;43.97;22.17;;;10.00;99.90;;;;;;4442303;28;658655;-67
2022/05/06 04:25:16;;;;;;;51.15;22.52;;;10.10;99.90;;;;;;4390548;28;660771;-67
2022/05/06 04:28:05;;;;;;;134.67;22.47;;;10.20;99.90;;;;;;4438353;28;660018;-68
2022/05/06 04:30:52;;;;;;;45.17;21.83;;;10.30;99.90;;;;;;4418659;28;660000;-67
2022/05/06 04:33:40;;;;;;;100.30;24.03;;;10.20;99.90;;;;;;4440468;28;659250;-67
2022/05/06 04:36:28;;;;;;;52.33;25.27;;;10.30;99.90;;;;;;4419012;28;660470;-67
2022/05/06 04:39:16;;;;;;;52.33;26.77;;;10.50;99.90;;;;;;4417177;28;658851;-67
2022/05/06 04:42:04;;;;;;;55.77;26.70;;;10.70;99.90;;;;;;4438753;28;659108;-67
2022/05/06 04:44:52;;;;;;;51.83;26.53;;;10.90;99.90;;;;;;4419387;28;658676;-67
2022/05/06 04:47:40;;;;;;;43.17;22.90;;;10.90;99.90;;;;;;4438362;28;658877;-68
2022/05/06 04:50:27;;;;;;;44.10;24.07;;;10.90;99.90;;;;;;4439057;28;659773;-67
2022/05/06 04:53:15;;;;;;;44.30;23.07;;;10.90;99.90;;;;;;4434069;28;658682;-68
2022/05/06 04:56:03;;;;;;;51.87;26.27;;;11.20;99.90;;;;;;4437004;28;659853;-67
2022/05/06 04:58:50;;;;;;;48.77;27.40;;;11.30;99.90;;;;;;4431198;28;659003;-68
2022/05/06 05:01:39;;;;;;;50.97;25.60;;;11.40;99.90;;;;;;4443733;28;659140;-67
2022/05/06 05:04:28;;;;;;;43.22;25.30;;;11.40;99.90;;;;;;4418202;28;658857;-67
2022/05/06 05:07:15;;;;;;;48.13;26.90;;;11.50;99.90;;;;;;4417705;28;658839;-67
2022/05/06 05:10:02;;;;;;;50.53;28.77;;;11.90;99.90;;;;;;4433470;28;660192;-67
2022/05/06 05:12:50;;;;;;;56.27;30.90;;;12.00;99.90;;;;;;4430098;28;658797;-67
2022/05/06 05:15:37;;;;;;;55.57;30.20;;;12.10;99.90;;;;;;4437779;28;660050;-68
2022/05/06 05:18:26;;;;;;;55.67;31.30;;;12.40;99.90;;;;;;4438819;28;658266;-68
2022/05/06 05:21:13;;;;;;;50.47;29.13;;;12.50;99.90;;;;;;4412634;28;659843;-67
2022/05/06 05:24:00;;;;;;;48.37;29.30;;;12.60;99.90;;;;;;4420755;28;658821;-68
2022/05/06 05:26:47;;;;;;;41.83;25.40;;;12.60;99.90;;;;;;4436236;28;659842;-67
2022/05/06 05:29:35;;;;;;;38.83;24.00;;;12.50;99.90;;;;;;4418695;28;658568;-67
2022/05/06 05:32:22;;;;;;;37.80;24.53;;;12.50;99.90;;;;;;4437389;28;659308;-67
2022/05/06 05:35:11;;;;;;;36.63;24.73;;;12.60;99.90;;;;;;4434165;28;658494;-67
2022/05/06 05:38:00;;;;;;;32.70;21.60;;;12.70;99.90;;;;;;4423889;28;658534;-67
2022/05/06 05:40:47;;;;;;;33.73;21.70;;;12.60;99.90;;;;;;4389509;28;660341;-67
2022/05/06 05:49:55;;;;;;;42.37;22.57;;;12.70;99.90;;;;;;4379221;28;658990;-67
2022/05/06 05:52:44;;;;;;;40.17;24.30;;;12.50;99.90;;;;;;4434562;28;658595;-67
2022/05/06 05:55:32;;;;;;;42.43;24.60;;;12.50;99.90;;;;;;4414667;28;658922;-67
2022/05/06 05:58:19;;;;;;;43.87;24.70;;;12.40;99.90;;;;;;4434565;28;659634;-67
2022/05/06 06:01:06;;;;;;;45.23;24.73;;;12.40;99.90;;;;;;4415492;28;658599;-67
2022/05/06 06:03:53;;;;;;;43.27;25.27;;;12.40;99.90;;;;;;4431246;28;659550;-67
2022/05/06 06:06:41;;;;;;;51.83;29.50;;;12.50;99.90;;;;;;4418267;28;658565;-67
2022/05/06 06:09:32;;;;;;;48.43;27.17;;;12.90;99.90;;;;;;4433936;28;658817;-67
2022/05/06 06:12:19;;;;;;;46.27;27.43;;;13.10;99.90;;;;;;4416929;28;658918;-67
2022/05/06 06:15:07;;;;;;;47.17;26.77;;;13.20;99.90;;;;;;4410934;28;658725;-67
2022/05/06 06:17:55;;;;;;;49.03;25.73;;;13.10;99.90;;;;;;4446462;28;659039;-67
2022/05/06 06:20:42;;;;;;;42.63;23.93;;;13.00;99.90;;;;;;4436843;28;659086;-67
2022/05/06 06:23:31;;;;;;;45.27;27.37;;;13.10;99.90;;;;;;4439766;28;658990;-67
2022/05/06 06:26:19;;;;;;;43.87;26.80;;;13.20;99.90;;;;;;4445132;28;658588;-66
2022/05/06 06:29:07;;;;;;;41.53;25.93;;;13.20;99.90;;;;;;4410352;28;659178;-67
2022/05/06 06:31:54;;;;;;;43.17;26.33;;;13.10;99.90;;;;;;4436919;28;658910;-67
2022/05/06 06:34:41;;;;;;;43.17;27.37;;;13.20;99.90;;;;;;4420836;28;659614;-67
2022/05/06 06:37:31;;;;;;;45.00;27.03;;;13.40;99.90;;;;;;4444249;28;658653;-67
2022/05/06 06:40:18;;;;;;;39.67;25.00;;;13.40;99.90;;;;;;4410123;28;659258;-67
2022/05/06 06:43:07;;;;;;;43.57;27.00;;;13.00;99.90;;;;;;4409018;28;658662;-66
2022/05/06 06:45:56;;;;;;;48.23;29.30;;;13.10;99.90;;;;;;4423018;28;658543;-67
2022/05/06 06:48:44;;;;;;;56.50;31.93;;;12.90;99.90;;;;;;4394922;28;659278;-67
2022/05/06 06:51:31;;;;;;;62.53;35.78;;;12.70;99.90;;;;;;4396759;28;658487;-67
2022/05/06 06:54:19;;;;;;;76.00;38.70;;;12.60;99.90;;;;;;4417892;28;659099;-67
2022/05/06 06:57:07;;;;;;;72.13;39.47;;;12.60;99.90;;;;;;4398229;28;658708;-67
2022/05/06 06:59:56;;;;;;;77.33;40.83;;;12.50;99.90;;;;;;4423731;28;658780;-67
2022/05/06 07:02:44;;;;;;;75.83;41.63;;;12.50;99.90;;;;;;4395355;28;659055;-66
2022/05/06 07:05:31;;;;;;;77.03;41.83;;;12.50;99.90;;;;;;4393148;28;658674;-67
2022/05/06 07:14:29;;;;;;;89.72;47.28;;;12.50;99.90;;;;;;4390551;28;659041;-67
2022/05/06 07:17:17;;;;;;;80.87;42.80;;;12.60;99.90;;;;;;4397979;28;658839;-67
2022/05/06 07:20:05;;;;;;;90.83;46.37;;;12.70;99.90;;;;;;4407021;28;658996;-67
2022/05/06 07:22:52;;;;;;;92.03;45.27;;;12.70;99.90;;;;;;4393727;28;660107;-67
2022/05/06 07:25:39;;;;;;;88.53;46.87;;;12.70;99.90;;;;;;4421287;28;658302;-67
2022/05/06 07:28:26;;;;;;;95.67;47.23;;;12.70;99.90;;;;;;4401457;28;658577;-67
2022/05/06 07:31:13;;;;;;;104.30;50.63;;;12.80;99.90;;;;;;4418559;28;659180;-67
2022/05/06 07:34:02;;;;;;;96.57;50.80;;;13.00;99.90;;;;;;4403700;28;659606;-67
2022/05/06 07:36:49;;;;;;;96.97;50.55;;;13.10;99.90;;;;;;4426141;28;658544;-67
2022/05/06 07:39:36;;;;;;;99.47;51.40;;;13.10;99.90;;;;;;4399703;28;658920;-67
2022/05/06 07:42:25;;;;;;;97.40;46.20;;;13.20;99.90;;;;;;4409925;28;659371;-67
2022/05/06 07:45:12;;;;;;;99.47;45.17;;;13.10;99.90;;;;;;4392420;28;660074;-67
2022/05/06 07:48:00;;;;;;;83.27;45.07;;;13.10;99.90;;;;;;4418346;28;660187;-66
2022/05/06 07:50:48;;;;;;;91.47;43.07;;;13.30;99.90;;;;;;4396104;28;659685;-67
2022/05/06 07:53:36;;;;;;;84.57;42.20;;;13.20;99.90;;;;;;4394638;28;658761;-67
2022/05/06 07:56:23;;;;;;;82.60;42.50;;;13.20;99.90;;;;;;4414780;28;659709;-67
2022/05/06 07:59:11;;;;;;;95.35;44.03;;;13.00;99.90;;;;;;4401712;28;658516;-67
2022/05/06 08:05:03;;;;;;;87.80;42.23;;;13.30;99.90;;;;;;4399217;28;659766;-67
2022/05/06 08:07:52;;;;;;;85.20;41.63;;;13.30;99.90;;;;;;4401702;28;659075;-67
2022/05/06 08:10:39;;;;;;;77.30;39.10;;;13.40;99.90;;;;;;4425806;28;659307;-67
2022/05/06 08:13:26;;;;;;;77.97;40.37;;;13.40;99.90;;;;;;4404340;28;659260;-67
2022/05/06 08:16:13;;;;;;;76.60;40.20;;;13.40;99.90;;;;;;4415547;28;659358;-67
2022/05/06 08:19:01;;;;;;;73.70;38.50;;;13.50;99.90;;;;;;4396068;28;658747;-67
2022/05/06 08:21:48;;;;;;;70.37;36.23;;;13.50;99.90;;;;;;4424235;28;658866;-66
2022/05/06 08:24:37;;;;;;;70.73;37.30;;;13.40;99.90;;;;;;4407530;28;658905;-67
2022/05/06 08:27:24;;;;;;;72.57;34.87;;;13.40;99.90;;;;;;4416028;28;658563;-67
2022/05/06 08:30:13;;;;;;;71.90;36.73;;;13.40;99.90;;;;;;4397726;28;658628;-67
2022/05/06 08:33:00;;;;;;;70.17;36.93;;;13.30;99.90;;;;;;4402679;28;658984;-67
2022/05/06 08:35:48;;;;;;;75.67;35.17;;;13.40;99.90;;;;;;4426670;28;659307;-67
2022/05/06 08:38:35;;;;;;;79.10;39.60;;;13.30;99.90;;;;;;4412919;28;659031;-67
2022/05/06 08:41:24;;;;;;;76.93;39.67;;;13.30;99.90;;;;;;4432474;28;659373;-67
2022/05/06 08:53:31;;;;;;;70.37;36.60;;;13.90;99.90;;;;;;4374338;28;659115;-67
2022/05/06 08:56:18;;;;;;;66.77;36.67;;;13.90;99.90;;;;;;4421784;28;659318;-67
2022/05/06 08:59:07;;;;;;;65.87;36.00;;;13.80;99.90;;;;;;4409030;28;658786;-67
2022/05/06 09:01:55;;;;;;;67.37;35.20;;;14.00;99.90;;;;;;4431867;28;658527;-67
2022/05/06 09:04:42;;;;;;;61.30;34.67;;;14.30;99.90;;;;;;4405946;28;659661;-67
2022/05/06 09:07:29;;;;;;;59.03;33.93;;;14.20;99.90;;;;;;4422973;28;658667;-67
2022/05/06 09:10:16;;;;;;;57.37;32.17;;;14.10;99.90;;;;;;4408611;28;658523;-67
2022/05/06 09:13:04;;;;;;;57.40;31.23;;;14.20;99.90;;;;;;4422924;28;659188;-67
2022/05/06 09:19:02;;;;;;;50.43;28.47;;;14.50;99.90;;;;;;4386117;28;658804;-67
2022/05/06 09:22:04;;;;;;;48.47;29.23;;;14.70;99.90;;;;;;4398884;28;659093;-67
2022/05/06 09:24:51;;;;;;;51.90;29.10;;;14.90;99.90;;;;;;4386821;28;659354;-67
2022/05/06 09:27:38;;;;;;;53.23;29.50;;;15.10;99.90;;;;;;4431984;28;658638;-67
2022/05/06 09:30:26;;;;;;;49.17;28.70;;;15.30;99.90;;;;;;4410248;28;659320;-67
2022/05/06 09:33:24;;;;;;;52.20;27.77;;;15.30;99.90;;;;;;4431211;28;659455;-67
2022/05/06 09:36:29;;;;;;;43.50;25.93;;;15.20;99.90;;;;;;4408329;28;658392;-67
2022/05/06 09:39:16;;;;;;;44.67;26.23;;;15.20;99.90;;;;;;4389130;28;659337;-67
2022/05/06 09:42:05;;;;;;;43.17;26.13;;;15.30;99.90;;;;;;4427997;28;659478;-66
2022/05/06 09:44:52;;;;;;;49.20;27.07;;;15.20;99.90;;;;;;4410100;28;660357;-67
2022/05/06 09:47:40;;;;;;;43.70;24.97;;;15.80;99.90;;;;;;4428321;28;658670;-67
2022/05/06 09:50:36;;;;;;;41.53;23.97;;;16.00;99.90;;;;;;4406028;28;659572;-67
2022/05/06 09:53:23;;;;;;;37.23;24.37;;;16.40;99.90;;;;;;4399771;28;659153;-67
2022/05/06 09:56:10;;;;;;;38.37;20.83;;;16.40;99.90;;;;;;4417366;28;659117;-67
2022/05/06 09:58:57;;;;;;;39.83;22.97;;;16.40;99.90;;;;;;4439268;28;658481;-67
2022/05/06 10:01:45;;;;;;;39.00;23.93;;;16.20;99.90;;;;;;4431382;28;658954;-67
2022/05/06 10:04:32;;;;;;;35.53;21.07;;;16.40;99.90;;;;;;4431387;28;659932;-67
2022/05/06 10:07:22;;;;;;;36.27;21.07;;;16.70;99.90;;;;;;4428054;28;658610;-66
2022/05/06 10:10:13;;;;;;;34.23;20.20;;;16.60;99.90;;;;;;4404117;28;658822;-67
2022/05/06 10:13:02;;;;;;;33.47;20.10;;;16.10;99.90;;;;;;4397532;28;658954;-67
2022/05/06 10:15:50;;;;;;;29.30;19.00;;;16.30;99.90;;;;;;4426377;28;659781;-67
2022/05/06 10:18:37;;;;;;;34.67;20.73;;;16.40;99.90;;;;;;4407052;28;660637;-67
2022/05/06 10:21:25;;;;;;;32.70;21.10;;;16.60;99.90;;;;;;4420996;28;659603;-67
2022/05/06 10:24:15;;;;;;;42.23;22.63;;;16.90;99.90;;;;;;4424480;28;658589;-67
2022/05/06 10:27:04;;;;;;;28.73;19.07;;;17.20;99.90;;;;;;4399962;28;659737;-67
2022/05/06 10:32:59;;;;;;;31.53;19.00;;;17.10;99.90;;;;;;4406342;28;658600;-67
2022/05/06 10:35:47;;;;;;;25.77;18.40;;;16.50;99.90;;;;;;4399530;28;659177;-67
2022/05/06 10:38:34;;;;;;;33.20;19.77;;;16.70;99.90;;;;;;4431908;28;658421;-67
2022/05/06 10:41:24;;;;;;;39.00;21.80;;;16.80;99.90;;;;;;4407808;28;658629;-66
2022/05/06 10:44:31;;;;;;;29.67;18.33;;;17.00;99.90;;;;;;4401471;28;659544;-67
2022/05/06 10:47:49;;;;;;;26.73;17.73;;;17.00;99.90;;;;;;4396631;28;658770;-67
2022/05/06 10:50:39;;;;;;;31.00;17.67;;;16.60;99.90;;;;;;4401617;28;658599;-67
2022/05/06 10:53:33;;;;;;;31.90;18.00;;;17.00;99.90;;;;;;4398057;28;659039;-67
2022/05/06 10:56:20;;;;;;;28.07;17.13;;;17.20;99.90;;;;;;4377881;28;658475;-67
2022/05/06 10:59:09;;;;;;;24.90;16.13;;;16.80;99.90;;;;;;4416156;28;658629;-67
2022/05/06 11:01:56;;;;;;;27.67;16.27;;;16.40;99.90;;;;;;4391682;28;658658;-67
2022/05/06 11:04:45;;;;;;;25.77;16.10;;;16.90;99.90;;;;;;4416241;28;658136;-66
2022/05/06 11:07:34;;;;;;;29.53;16.83;;;16.30;99.90;;;;;;4390248;28;659976;-66
2022/05/06 11:10:22;;;;;;;24.83;16.57;;;16.70;99.90;;;;;;4396631;28;659066;-67
2022/05/06 11:13:10;;;;;;;26.47;17.33;;;17.20;99.90;;;;;;4413388;28;658367;-67
2022/05/06 11:16:05;;;;;;;26.30;16.90;;;17.10;99.90;;;;;;4427332;28;659435;-67
2022/05/06 11:18:53;;;;;;;28.10;16.63;;;17.00;99.90;;;;;;4371971;28;659284;-67
2022/05/06 11:21:41;;;;;;;27.33;16.73;;;16.80;99.90;;;;;;4403268;28;658694;-67
2022/05/06 11:24:30;;;;;;;24.90;17.00;;;16.90;99.90;;;;;;4424081;28;659645;-67
2022/05/06 11:27:18;;;;;;;24.30;16.57;;;17.00;99.90;;;;;;4393196;28;659544;-67
2022/05/06 11:30:08;;;;;;;27.33;17.03;;;17.10;99.90;;;;;;4400261;28;658505;-67
2022/05/06 11:32:58;;;;;;;33.97;17.93;;;16.70;99.90;;;;;;4416674;28;659039;-67
2022/05/06 11:35:47;;;;;;;27.83;16.63;;;16.70;99.90;;;;;;4408222;28;659037;-67
2022/05/06 11:38:35;;;;;;;32.97;17.67;;;16.50;99.90;;;;;;4416673;28;658260;-67
2022/05/06 11:41:22;;;;;;;29.13;17.30;;;16.70;99.90;;;;;;4397930;28;660037;-67
2022/05/06 11:44:10;;;;;;;30.07;17.17;;;16.80;99.90;;;;;;4419315;28;659232;-67
2022/05/06 11:50:04;;;;;;;34.73;20.33;;;17.00;99.90;;;;;;4394541;28;660528;-67
2022/05/06 11:52:51;;;;;;;25.33;14.57;;;16.50;99.90;;;;;;4402214;28;659386;-66
2022/05/06 11:55:39;;;;;;;25.90;14.93;;;16.70;99.90;;;;;;4417052;28;659924;-67
2022/05/06 11:58:26;;;;;;;23.97;14.80;;;16.40;99.90;;;;;;4401579;28;659037;-67
2022/05/06 12:01:13;;;;;;;20.37;13.80;;;16.40;99.90;;;;;;4419273;28;659679;-66
2022/05/06 12:04:01;;;;;;;19.93;13.10;;;16.60;99.90;;;;;;4400292;28;658329;-67
2022/05/06 12:06:51;;;;;;;28.20;17.30;;;16.20;99.90;;;;;;4414023;28;660306;-67
2022/05/06 12:09:42;;;;;;;27.30;17.03;;;16.30;99.90;;;;;;4393962;28;659674;-66
2022/05/06 12:12:29;;;;;;;36.40;21.73;;;16.00;99.90;;;;;;4393983;28;659261;-66
2022/05/06 12:15:18;;;;;;;44.73;24.83;;;16.10;99.90;;;;;;4401151;28;659690;-66
2022/05/06 12:18:06;;;;;;;44.50;27.13;;;16.00;99.90;;;;;;4409153;28;659130;-67
2022/05/06 12:20:53;;;;;;;46.83;27.30;;;15.70;99.90;;;;;;4417798;28;659915;-67
2022/05/06 12:23:42;;;;;;;45.00;27.33;;;15.80;99.90;;;;;;4397949;28;658581;-66
2022/05/06 12:26:38;;;;;;;54.47;29.77;;;15.80;99.90;;;;;;4418282;28;658047;-67
2022/05/06 12:29:25;;;;;;;52.90;30.60;;;15.90;99.90;;;;;;4378385;28;658462;-66
2022/05/06 12:32:12;;;;;;;53.73;29.43;;;15.60;99.90;;;;;;4420885;28;659819;-67
2022/05/06 12:35:04;;;;;;;54.40;31.10;;;15.50;99.90;;;;;;4415122;28;658334;-67
2022/05/06 12:37:54;;;;;;;54.03;32.60;;;15.90;99.90;;;;;;4399214;28;659060;-67
2022/05/06 12:40:43;;;;;;;51.13;30.27;;;15.70;99.90;;;;;;4396639;28;659019;-67
2022/05/06 12:43:31;;;;;;;59.80;33.10;;;15.50;99.90;;;;;;4412127;28;660130;-67
2022/05/06 12:46:28;;;;;;;61.63;34.50;;;15.40;99.90;;;;;;4424410;28;659381;-67
2022/05/06 12:52:20;;;;;;;68.77;37.17;;;15.30;99.90;;;;;;4382613;28;660050;-66
2022/05/06 12:55:08;;;;;;;64.00;36.67;;;15.50;99.90;;;;;;4419010;28;659511;-67
2022/05/06 12:57:57;;;;;;;57.93;32.63;;;15.40;99.90;;;;;;4399618;28;658782;-67
2022/05/06 13:00:44;;;;;;;65.77;36.63;;;15.10;99.90;;;;;;4420258;28;659037;-66
2022/05/06 13:03:32;;;;;;;66.53;37.07;;;15.00;99.90;;;;;;4402047;28;659540;-66
2022/05/06 13:06:19;;;;;;;65.93;36.00;;;15.00;99.90;;;;;;4424409;28;658609;-67
2022/05/06 13:09:06;;;;;;;65.80;36.27;;;15.00;99.90;;;;;;4390917;28;658950;-67
2022/05/06 13:11:54;;;;;;;65.13;36.57;;;15.10;99.90;;;;;;4419209;28;660494;-67
2022/05/06 13:14:42;;;;;;;69.10;37.97;;;15.00;99.90;;;;;;4393419;28;658667;-67
2022/05/06 13:17:29;;;;;;;71.17;39.03;;;14.90;99.90;;;;;;4419392;28;658047;-66
2022/05/06 13:20:17;;;;;;;64.73;31.70;;;14.90;99.90;;;;;;4396743;28;659499;-67
2022/05/06 13:23:04;;;;;;;69.37;37.00;;;14.80;99.90;;;;;;4408388;28;660498;-67
2022/05/06 13:25:51;;;;;;;71.20;38.37;;;14.80;99.90;;;;;;4398401;28;658612;-67
2022/05/06 13:28:39;;;;;;;76.63;40.77;;;14.90;99.90;;;;;;4418477;28;659122;-67
2022/05/06 13:31:27;;;;;;;66.27;35.30;;;14.90;99.90;;;;;;4399618;28;658965;-66
2022/05/06 13:34:15;;;;;;;79.83;36.40;;;14.80;99.90;;;;;;4407938;28;658742;-67
2022/05/06 13:37:04;;;;;;;77.07;40.37;;;14.70;99.90;;;;;;4412983;28;659617;-67
2022/05/06 13:39:51;;;;;;;78.30;40.80;;;14.70;99.90;;;;;;4402166;28;658826;-67
2022/05/06 13:42:38;;;;;;;76.23;40.50;;;15.00;99.90;;;;;;4424375;28;659660;-67
2022/05/06 13:45:26;;;;;;;83.23;42.23;;;15.00;99.90;;;;;;4407221;28;658731;-67
2022/05/06 13:48:14;;;;;;;81.07;43.10;;;14.80;99.90;;;;;;4419685;28;659408;-67
2022/05/06 13:51:01;;;;;;;76.70;40.30;;;15.10;99.90;;;;;;4406042;28;658838;-67
2022/05/06 13:53:49;;;;;;;84.97;41.57;;;15.20;99.90;;;;;;4416601;28;659112;-67
2022/05/06 13:59:41;;;;;;;92.77;43.93;;;15.20;99.90;;;;;;4385082;28;659248;-66
2022/05/06 14:02:28;;;;;;;90.77;43.97;;;15.20;99.90;;;;;;4416233;28;659118;-67
2022/05/06 14:05:17;;;;;;;90.20;44.07;;;15.30;99.90;;;;;;4404240;28;658689;-67
2022/05/06 14:08:05;;;;;;;89.57;42.93;;;15.50;99.90;;;;;;4418258;28;660347;-67
2022/05/06 14:10:52;;;;;;;83.10;41.80;;;15.50;99.90;;;;;;4398632;28;659411;-67
2022/05/06 14:13:40;;;;;;;85.17;42.27;;;15.20;99.90;;;;;;4421108;28;658478;-67
2022/05/06 14:16:28;;;;;;;87.87;43.43;;;15.30;99.90;;;;;;4385699;28;659560;-67
2022/05/06 14:19:16;;;;;;;83.53;42.03;;;15.40;99.90;;;;;;4402453;28;658925;-67
2022/05/06 14:22:05;;;;;;;81.70;39.03;;;15.60;99.90;;;;;;4417473;28;660015;-67
2022/05/06 14:24:52;;;;;;;79.17;39.60;;;15.40;99.90;;;;;;4399929;28;660899;-67
2022/05/06 14:27:40;;;;;;;83.03;41.92;;;15.50;99.90;;;;;;4416728;28;660100;-67
2022/05/06 14:30:27;;;;;;;86.50;41.10;;;15.70;99.90;;;;;;4393033;28;660405;-67
2022/05/06 14:33:17;;;;;;;80.13;39.40;;;15.80;99.90;;;;;;4412302;28;659151;-68
2022/05/06 14:36:04;;;;;;;82.33;38.73;;;15.60;99.90;;;;;;4394349;28;659669;-67
2022/05/06 14:38:53;;;;;;;80.93;40.00;;;15.80;99.90;;;;;;4398884;28;659071;-67
2022/05/06 14:41:40;;;;;;;86.40;41.43;;;15.90;99.90;;;;;;4395302;28;658709;-67
2022/05/06 14:44:27;;;;;;;81.80;38.63;;;16.10;99.90;;;;;;4421213;28;659086;-67
2022/05/06 14:47:15;;;;;;;74.37;37.23;;;16.30;99.90;;;;;;4420816;28;658796;-67
2022/05/06 14:50:03;;;;;;;74.97;38.70;;;16.10;99.90;;;;;;4427194;28;659977;-67
2022/05/06 14:52:50;;;;;;;83.07;39.73;;;15.80;99.90;;;;;;4399424;28;660960;-67
2022/05/06 14:55:39;;;;;;;75.03;37.93;;;16.00;99.90;;;;;;4414692;28;659489;-67
2022/05/06 14:58:26;;;;;;;79.80;38.17;;;15.90;99.90;;;;;;4397161;28;658396;-67